Pond Creek, Oklahoma
Current Conditions -  °F | °C
As of 10:50 AM on Thursday 27 Nov 2014 (Local Time) from KWDG Reporting Station
Scattered Clouds Scattered Clouds  
Wind Chill: 35°   Ceiling: Unl
Heat Index: 41°   Visibility: 10mi
Dew Point: 25°   Wind: 9mph
Humidity: 53%   Direction: 170°S
Pressure: 30.53"   Gusts: NA
Location:  36.67°N, 97.8°W
Report Text: KWDG 271650Z 17008KT 10SM SCT200 05/M04 A3053
Loading
Personal Weather Stations






























Interactive Weather Map New forecast layout! Learn more

10-Day Weather Forecast

Advertisements
Track Severe Weather on mobile